Terminal Aerodrome Forecast
Issued by NWS Atlanta, GA

Home | Current Version | Previous Version | Text Only | Print | Product List | Glossary On
Versions: 1 2 3 4 5 6 7 8 9 10 11 12 13 14 15 16 17 18 19 20 21 22 23 24 25 26 27 28 29 30 31 32 33 34 35 36 37 38
176
FTAK31 PAJN 260643 AAA
TAFAHN
TAF AMD
PAHN 260643Z 2607/2706 11006KT P6SM BKN060
     FM260800 10008KT P6SM SCT015 BKN060
     FM261400 09006KT P6SM FEW040 SCT070
     FM261800 13010KT P6SM SCT070
     FM270300 10006KT P6SM SCT070
      AMD LTD TO CLD VIS AND WIND=

USA.gov is the U.S. government's official web portal to all federal, state and local government web resources and services.